Ryosui — JD4228 — position and weather

sailwx.info

Track history (hours):
 
Tides and Currents Weather Stations Pressure Air Temp Water Temp Dewpoint Dewpoint Depression Visibility Wind Speed Wind Dir Waves Ship Positions

Ryosui

Last reported at 2017-Dec-11 17:00 UTC. Time now 2017-Dec-14 00:19 UTC.
Position N 33°56' E 135°01'.

Length 67 m; draft 4.8 m.

Type: Tanker. MMSI: 431009833.

Date/timePositionNaut miles runAvg speedWind from/ knotsBaromVisibWave heightAir tempDewpointWater temp
2017-Dec-11 17:00N 33°56' E 135°01'612.3
2017-Dec-11 16:30N 34°02' E 134°60'612.7
2017-Dec-11 16:00N 34°08' E 134°59'713.8
2017-Dec-11 15:31N 34°15' E 134°59'713.2
2017-Dec-11 15:00N 34°22' E 134°60'612.9
2017-Dec-11 14:30N 34°28' E 135°01'612.3
2017-Dec-11 14:00N 34°34' E 135°03'510.8
2017-Dec-11 13:31N 34°36' E 134°57'714.4
2017-Dec-11 13:01N 34°33' E 134°49'713.2
2017-Dec-11 12:31N 34°31' E 134°41'611.3
2017-Dec-11 12:00N 34°29' E 134°35'13 0.4
2017-Dec-10 01:31N 34°16' E 134°38'116.5
2017-Dec-10 01:26N 34°15' E 134°39'714.1
2017-Dec-10 00:55N 34°09' E 134°44'1412.9
2017-Dec-09 23:49N 33°58' E 134°55'413.1
2017-Dec-09 23:30N 33°55' E 134°58'104 8.7
2017-Dec-09 11:32N 34°38' E 136°54'113.0
2017-Dec-09 11:27N 34°38' E 136°53'612.9
2017-Dec-09 11:00N 34°43' E 136°48'713.1
2017-Dec-09 10:30N 34°49' E 136°45'713.0
2017-Dec-09 10:00N 34°55' E 136°41'3 6.0
2017-Dec-09 09:28N 34°57' E 136°38'0 0.3
2017-Dec-09 08:58N 34°57' E 136°38'0 0.0
2017-Dec-09 08:28N 34°57' E 136°38'0 0.0
2017-Dec-09 07:59N 34°57' E 136°38'0 0.0
2017-Dec-09 07:28N 34°57' E 136°38'0 0.0
2017-Dec-09 06:40N 34°57' E 136°38'0 0.0
2017-Dec-09 06:28N 34°57' E 136°38'0 0.0
2017-Dec-09 05:58N 34°57' E 136°38'0 0.0
2017-Dec-09 05:25N 34°57' E 136°38'0 0.0
2017-Dec-09 05:01N 34°57' E 136°38'2 3.6
2017-Dec-09 04:30N 34°57' E 136°40'0 0.0
2017-Dec-09 04:00N 34°57' E 136°40'0 0.0
2017-Dec-09 03:30N 34°58' E 136°40'0 0.0
2017-Dec-09 03:00N 34°58' E 136°40'0 0.0
2017-Dec-09 02:30N 34°58' E 136°40'0 0.0
2017-Dec-09 02:00N 34°58' E 136°40'0 0.0
2017-Dec-09 01:30N 34°58' E 136°40'0 0.0
2017-Dec-09 01:00N 34°58' E 136°40'0 0.0
2017-Dec-09 00:30N 34°58' E 136°40'0 0.0
2017-Dec-09 00:00N 34°58' E 136°40'1 1.7
2017-Dec-08 23:31N 34°57' E 136°41'713.2
2017-Dec-08 23:00N 34°51' E 136°45'713.1
2017-Dec-08 22:30N 34°45' E 136°48'612.6
2017-Dec-08 22:00N 34°40' E 136°52'30 9.8
2017-Dec-08 18:56N 34°10' E 136°47'8710.0
2017-Dec-08 10:10N 33°47' E 135°05'613.7
2017-Dec-08 09:45N 33°51' E 135°01'313.9
2017-Dec-08 09:30N 33°54' E 134°58'913.9
2017-Dec-08 08:51N 34°01' E 134°51'513.8
2017-Dec-08 08:30N 34°05' E 134°48'714.2
2017-Dec-08 08:01N 34°10' E 134°42'714.7
2017-Dec-08 07:31N 34°16' E 134°37'1013.4
2017-Dec-08 06:46N 34°20' E 134°26'6 0.4
2017-Dec-07 13:27N 34°18' E 134°33'613.5
2017-Dec-07 13:00N 34°14' E 134°39'712.7
2017-Dec-07 12:26N 34°09' E 134°44'1312.6
2017-Dec-07 11:26N 33°60' E 134°54'512.7
2017-Dec-07 11:00N 33°55' E 134°58'  
2017-Dec-03 13:59N 35°06' E 140°22'1013.1
2017-Dec-03 13:15N 35°00' E 140°12'313.0
2017-Dec-03 13:00N 34°59' E 140°09'613.1
2017-Dec-03 12:31N 34°55' E 140°02'813.3
2017-Dec-03 11:55N 34°52' E 139°53'511.8
2017-Dec-03 11:31N 34°52' E 139°47'715.0
2017-Dec-03 11:00N 34°58' E 139°42'713.7
2017-Dec-03 10:30N 35°05' E 139°44'713.1
2017-Dec-03 10:00N 35°11' E 139°46'611.8
2017-Dec-03 09:31N 35°17' E 139°45'713.1
2017-Dec-03 09:01N 35°23' E 139°42'713.0
2017-Dec-03 08:30N 35°28' E 139°48'3 6.1
2017-Dec-03 08:01N 35°30' E 139°45'0 0.0
2017-Dec-03 07:30N 35°30' E 139°45'0 0.0
2017-Dec-03 07:01N 35°30' E 139°45'0 0.0
2017-Dec-03 06:30N 35°30' E 139°45'0 0.0
2017-Dec-03 06:00N 35°30' E 139°45'0 0.0
2017-Dec-03 05:30N 35°30' E 139°45'0 0.0
2017-Dec-03 05:01N 35°30' E 139°45'0 0.0
2017-Dec-03 04:30N 35°30' E 139°45'0 0.0
2017-Dec-03 04:01N 35°30' E 139°45'0 0.0
2017-Dec-03 03:30N 35°30' E 139°45'0 0.0
2017-Dec-03 03:00N 35°30' E 139°45'2 3.2
2017-Dec-03 02:30N 35°29' E 139°43'2 4.9
2017-Dec-03 02:00N 35°29' E 139°46'0 0.5
2017-Dec-03 01:30N 35°29' E 139°46'0 0.1
2017-Dec-03 01:00N 35°29' E 139°46'0 0.0
2017-Dec-03 00:30N 35°29' E 139°46'0 0.1
2017-Dec-03 00:00N 35°29' E 139°46'0 0.0
2017-Dec-02 23:30N 35°29' E 139°46'0 0.0
2017-Dec-02 23:00N 35°29' E 139°46'0 0.0
2017-Dec-02 22:30N 35°29' E 139°46'0 0.1
2017-Dec-02 22:00N 35°29' E 139°46'0 0.0
2017-Dec-02 21:30N 35°29' E 139°46'0 0.1
2017-Dec-02 21:00N 35°29' E 139°46'0 0.1
2017-Dec-02 20:30N 35°29' E 139°46'0 0.0
2017-Dec-02 20:00N 35°29' E 139°46'0 0.0
2017-Dec-02 19:30N 35°29' E 139°46'0 0.0
2017-Dec-02 19:00N 35°29' E 139°46'0 0.0
2017-Dec-02 18:30N 35°29' E 139°46'0 0.0
2017-Dec-02 18:00N 35°29' E 139°46'0 0.0
2017-Dec-02 17:30N 35°29' E 139°46'0 0.0
2017-Dec-02 17:00N 35°29' E 139°46'0 0.0
2017-Dec-02 16:30N 35°29' E 139°46'0 0.0
2017-Dec-02 16:00N 35°29' E 139°46'0 0.0
2017-Dec-02 15:30N 35°29' E 139°46'0 0.0
2017-Dec-02 15:00N 35°29' E 139°46'0 0.0
2017-Dec-02 14:30N 35°29' E 139°46'0 0.0
2017-Dec-02 14:00N 35°29' E 139°46'0 0.1
2017-Dec-02 13:30N 35°29' E 139°46'0 0.0
2017-Dec-02 13:00N 35°29' E 139°46'0 0.0
2017-Dec-02 12:30N 35°29' E 139°46'0 0.0
2017-Dec-02 12:00N 35°29' E 139°46'0 0.0
2017-Dec-02 11:30N 35°29' E 139°46'0 0.0
2017-Dec-02 11:00N 35°29' E 139°46'0 0.0
2017-Dec-02 10:30N 35°29' E 139°46'0 0.0
2017-Dec-02 10:00N 35°29' E 139°46'0 0.0
2017-Dec-02 09:30N 35°29' E 139°46'0 0.0
2017-Dec-02 09:00N 35°29' E 139°46'0 0.0
2017-Dec-02 08:30N 35°29' E 139°46'0 0.0
2017-Dec-02 08:00N 35°29' E 139°46'0 0.0
2017-Dec-02 07:30N 35°29' E 139°46'0 0.0
2017-Dec-02 07:00N 35°29' E 139°46'0 0.0
2017-Dec-02 06:30N 35°29' E 139°46'0 0.0
2017-Dec-02 05:59N 35°29' E 139°46'0 0.0
2017-Dec-02 05:30N 35°29' E 139°46'0 0.0
2017-Dec-02 05:00N 35°29' E 139°46'0 0.0
2017-Dec-02 04:30N 35°29' E 139°46'0 0.0
2017-Dec-02 03:59N 35°29' E 139°46'0 0.0
2017-Dec-02 03:30N 35°29' E 139°46'0 0.0
2017-Dec-02 03:00N 35°29' E 139°46'0 0.0
2017-Dec-02 02:30N 35°29' E 139°46'0 0.0
2017-Dec-02 02:00N 35°29' E 139°46'0 0.0
2017-Dec-02 01:30N 35°29' E 139°46'0 0.0
2017-Dec-02 00:59N 35°29' E 139°46'0 0.0
2017-Dec-02 00:29N 35°29' E 139°46'0 0.0
2017-Dec-02 00:00N 35°29' E 139°46'0 0.0
2017-Dec-01 23:29N 35°29' E 139°46'0 0.0
2017-Dec-01 22:59N 35°29' E 139°46'0 0.0
2017-Dec-01 22:27N 35°29' E 139°46'0 0.0
2017-Dec-01 22:00N 35°29' E 139°46'0 0.0
2017-Dec-01 21:30N 35°29' E 139°46'0 0.0
2017-Dec-01 21:00N 35°29' E 139°46'0 0.0
2017-Dec-01 20:27N 35°29' E 139°46'0 0.0
2017-Dec-01 20:00N 35°29' E 139°46'0 0.0
2017-Dec-01 19:29N 35°29' E 139°46'0 0.0
2017-Dec-01 19:00N 35°29' E 139°46'0 0.0
2017-Dec-01 18:29N 35°29' E 139°46'0 0.0
2017-Dec-01 17:59N 35°29' E 139°46'0 0.0
2017-Dec-01 17:30N 35°29' E 139°46'  
Track history (hours):
 
Tides and Currents Weather Stations Pressure Air Temp Water Temp Dewpoint Dewpoint Depression Visibility Wind Speed Wind Dir Waves Ship Positions

Ryosui

Last reported at 2017-Dec-11 17:00 UTC. Time now 2017-Dec-14 00:19 UTC.
Position N 33°56' E 135°01'.

Length 67 m; draft 4.8 m.

Type: Tanker. MMSI: 431009833.

Date/timePositionNaut miles runAvg speedWind from/ knotsBaromVisibWave heightAir tempDewpointWater temp
2017-Dec-11 17:00N 33°56' E 135°01'612.3
2017-Dec-11 16:30N 34°02' E 134°60'612.7
2017-Dec-11 16:00N 34°08' E 134°59'713.8
2017-Dec-11 15:31N 34°15' E 134°59'713.2
2017-Dec-11 15:00N 34°22' E 134°60'612.9
2017-Dec-11 14:30N 34°28' E 135°01'612.3
2017-Dec-11 14:00N 34°34' E 135°03'510.8
2017-Dec-11 13:31N 34°36' E 134°57'714.4
2017-Dec-11 13:01N 34°33' E 134°49'713.2
2017-Dec-11 12:31N 34°31' E 134°41'611.3
2017-Dec-11 12:00N 34°29' E 134°35'13 0.4
2017-Dec-10 01:31N 34°16' E 134°38'116.5
2017-Dec-10 01:26N 34°15' E 134°39'714.1
2017-Dec-10 00:55N 34°09' E 134°44'1412.9
2017-Dec-09 23:49N 33°58' E 134°55'413.1
2017-Dec-09 23:30N 33°55' E 134°58'104 8.7
2017-Dec-09 11:32N 34°38' E 136°54'113.0
2017-Dec-09 11:27N 34°38' E 136°53'612.9
2017-Dec-09 11:00N 34°43' E 136°48'713.1
2017-Dec-09 10:30N 34°49' E 136°45'713.0
2017-Dec-09 10:00N 34°55' E 136°41'3 6.0
2017-Dec-09 09:28N 34°57' E 136°38'0 0.3
2017-Dec-09 08:58N 34°57' E 136°38'0 0.0
2017-Dec-09 08:28N 34°57' E 136°38'0 0.0
2017-Dec-09 07:59N 34°57' E 136°38'0 0.0
2017-Dec-09 07:28N 34°57' E 136°38'0 0.0
2017-Dec-09 06:40N 34°57' E 136°38'0 0.0
2017-Dec-09 06:28N 34°57' E 136°38'0 0.0
2017-Dec-09 05:58N 34°57' E 136°38'0 0.0
2017-Dec-09 05:25N 34°57' E 136°38'0 0.0
2017-Dec-09 05:01N 34°57' E 136°38'2 3.6
2017-Dec-09 04:30N 34°57' E 136°40'0 0.0
2017-Dec-09 04:00N 34°57' E 136°40'0 0.0
2017-Dec-09 03:30N 34°58' E 136°40'0 0.0
2017-Dec-09 03:00N 34°58' E 136°40'0 0.0
2017-Dec-09 02:30N 34°58' E 136°40'0 0.0
2017-Dec-09 02:00N 34°58' E 136°40'0 0.0
2017-Dec-09 01:30N 34°58' E 136°40'0 0.0
2017-Dec-09 01:00N 34°58' E 136°40'0 0.0
2017-Dec-09 00:30N 34°58' E 136°40'0 0.0
2017-Dec-09 00:00N 34°58' E 136°40'1 1.7
2017-Dec-08 23:31N 34°57' E 136°41'713.2
2017-Dec-08 23:00N 34°51' E 136°45'713.1
2017-Dec-08 22:30N 34°45' E 136°48'612.6
2017-Dec-08 22:00N 34°40' E 136°52'30 9.8
2017-Dec-08 18:56N 34°10' E 136°47'8710.0
2017-Dec-08 10:10N 33°47' E 135°05'613.7
2017-Dec-08 09:45N 33°51' E 135°01'313.9
2017-Dec-08 09:30N 33°54' E 134°58'913.9
2017-Dec-08 08:51N 34°01' E 134°51'513.8
2017-Dec-08 08:30N 34°05' E 134°48'714.2
2017-Dec-08 08:01N 34°10' E 134°42'714.7
2017-Dec-08 07:31N 34°16' E 134°37'1013.4
2017-Dec-08 06:46N 34°20' E 134°26'6 0.4
2017-Dec-07 13:27N 34°18' E 134°33'613.5
2017-Dec-07 13:00N 34°14' E 134°39'712.7
2017-Dec-07 12:26N 34°09' E 134°44'1312.6
2017-Dec-07 11:26N 33°60' E 134°54'512.7
2017-Dec-07 11:00N 33°55' E 134°58'  
2017-Dec-03 13:59N 35°06' E 140°22'1013.1
2017-Dec-03 13:15N 35°00' E 140°12'313.0
2017-Dec-03 13:00N 34°59' E 140°09'613.1
2017-Dec-03 12:31N 34°55' E 140°02'813.3
2017-Dec-03 11:55N 34°52' E 139°53'511.8
2017-Dec-03 11:31N 34°52' E 139°47'715.0
2017-Dec-03 11:00N 34°58' E 139°42'713.7
2017-Dec-03 10:30N 35°05' E 139°44'713.1
2017-Dec-03 10:00N 35°11' E 139°46'611.8
2017-Dec-03 09:31N 35°17' E 139°45'713.1
2017-Dec-03 09:01N 35°23' E 139°42'713.0
2017-Dec-03 08:30N 35°28' E 139°48'3 6.1
2017-Dec-03 08:01N 35°30' E 139°45'0 0.0
2017-Dec-03 07:30N 35°30' E 139°45'0 0.0
2017-Dec-03 07:01N 35°30' E 139°45'0 0.0
2017-Dec-03 06:30N 35°30' E 139°45'0 0.0
2017-Dec-03 06:00N 35°30' E 139°45'0 0.0
2017-Dec-03 05:30N 35°30' E 139°45'0 0.0
2017-Dec-03 05:01N 35°30' E 139°45'0 0.0
2017-Dec-03 04:30N 35°30' E 139°45'0 0.0
2017-Dec-03 04:01N 35°30' E 139°45'0 0.0
2017-Dec-03 03:30N 35°30' E 139°45'0 0.0
2017-Dec-03 03:00N 35°30' E 139°45'2 3.2
2017-Dec-03 02:30N 35°29' E 139°43'2 4.9
2017-Dec-03 02:00N 35°29' E 139°46'0 0.5
2017-Dec-03 01:30N 35°29' E 139°46'0 0.1
2017-Dec-03 01:00N 35°29' E 139°46'0 0.0
2017-Dec-03 00:30N 35°29' E 139°46'0 0.1
2017-Dec-03 00:00N 35°29' E 139°46'0 0.0
2017-Dec-02 23:30N 35°29' E 139°46'0 0.0
2017-Dec-02 23:00N 35°29' E 139°46'0 0.0
2017-Dec-02 22:30N 35°29' E 139°46'0 0.1
2017-Dec-02 22:00N 35°29' E 139°46'0 0.0
2017-Dec-02 21:30N 35°29' E 139°46'0 0.1
2017-Dec-02 21:00N 35°29' E 139°46'0 0.1
2017-Dec-02 20:30N 35°29' E 139°46'0 0.0
2017-Dec-02 20:00N 35°29' E 139°46'0 0.0
2017-Dec-02 19:30N 35°29' E 139°46'0 0.0
2017-Dec-02 19:00N 35°29' E 139°46'0 0.0
2017-Dec-02 18:30N 35°29' E 139°46'0 0.0
2017-Dec-02 18:00N 35°29' E 139°46'0 0.0
2017-Dec-02 17:30N 35°29' E 139°46'0 0.0
2017-Dec-02 17:00N 35°29' E 139°46'0 0.0
2017-Dec-02 16:30N 35°29' E 139°46'0 0.0
2017-Dec-02 16:00N 35°29' E 139°46'0 0.0
2017-Dec-02 15:30N 35°29' E 139°46'0 0.0
2017-Dec-02 15:00N 35°29' E 139°46'0 0.0
2017-Dec-02 14:30N 35°29' E 139°46'0 0.0
2017-Dec-02 14:00N 35°29' E 139°46'0 0.1
2017-Dec-02 13:30N 35°29' E 139°46'0 0.0
2017-Dec-02 13:00N 35°29' E 139°46'0 0.0
2017-Dec-02 12:30N 35°29' E 139°46'0 0.0
2017-Dec-02 12:00N 35°29' E 139°46'0 0.0
2017-Dec-02 11:30N 35°29' E 139°46'0 0.0
2017-Dec-02 11:00N 35°29' E 139°46'0 0.0
2017-Dec-02 10:30N 35°29' E 139°46'0 0.0
2017-Dec-02 10:00N 35°29' E 139°46'0 0.0
2017-Dec-02 09:30N 35°29' E 139°46'0 0.0
2017-Dec-02 09:00N 35°29' E 139°46'0 0.0
2017-Dec-02 08:30N 35°29' E 139°46'0 0.0
2017-Dec-02 08:00N 35°29' E 139°46'0 0.0
2017-Dec-02 07:30N 35°29' E 139°46'0 0.0
2017-Dec-02 07:00N 35°29' E 139°46'0 0.0
2017-Dec-02 06:30N 35°29' E 139°46'0 0.0
2017-Dec-02 05:59N 35°29' E 139°46'0 0.0
2017-Dec-02 05:30N 35°29' E 139°46'0 0.0
2017-Dec-02 05:00N 35°29' E 139°46'0 0.0
2017-Dec-02 04:30N 35°29' E 139°46'0 0.0
2017-Dec-02 03:59N 35°29' E 139°46'0 0.0
2017-Dec-02 03:30N 35°29' E 139°46'0 0.0
2017-Dec-02 03:00N 35°29' E 139°46'0 0.0
2017-Dec-02 02:30N 35°29' E 139°46'0 0.0
2017-Dec-02 02:00N 35°29' E 139°46'0 0.0
2017-Dec-02 01:30N 35°29' E 139°46'0 0.0
2017-Dec-02 00:59N 35°29' E 139°46'0 0.0
2017-Dec-02 00:29N 35°29' E 139°46'0 0.0
2017-Dec-02 00:00N 35°29' E 139°46'0 0.0
2017-Dec-01 23:29N 35°29' E 139°46'0 0.0
2017-Dec-01 22:59N 35°29' E 139°46'0 0.0
2017-Dec-01 22:27N 35°29' E 139°46'0 0.0
2017-Dec-01 22:00N 35°29' E 139°46'0 0.0
2017-Dec-01 21:30N 35°29' E 139°46'0 0.0
2017-Dec-01 21:00N 35°29' E 139°46'0 0.0
2017-Dec-01 20:27N 35°29' E 139°46'0 0.0
2017-Dec-01 20:00N 35°29' E 139°46'0 0.0
2017-Dec-01 19:29N 35°29' E 139°46'0 0.0
2017-Dec-01 19:00N 35°29' E 139°46'0 0.0
2017-Dec-01 18:29N 35°29' E 139°46'0 0.0
2017-Dec-01 17:59N 35°29' E 139°46'0 0.0
2017-Dec-01 17:30N 35°29' E 139°46'  

Dump ship's entire track history